^^
Your Local Weather - Clay, NY Station Historical Data
 
Daily Summary for May 20, 2018 Units:  English    Metric   Both
« Previous Day
Next Day »
Daily Weekly Monthly Yearly Custom
  Current: High: Low: Average:
Temperature: 65.2 °F 65.2 °F 58.8 °F 63 °F
Dew Point: 59.6 °F 59.6 °F 55.9 °F 58.4 °F
Humidity: 82% 91% 82% 85%
Wind Speed: 1.0mph 3.0mph 0.0mph 1.7mph
Wind Gust: 3.0mph 7.0mph - -
WindSSW - - SSW
Pressure: 29.80 in 29.84 in 29.78 in -
Precipitation: 0.00 in      
Historical Graphs
 
 
Tabular Data for May 20, 2018
Time Temperature Dew Point Pressure Wind Wind Speed Wind Gust Humidity Rainfall Rate (Hourly) solar
00:06 58.8 °F 55.9 °F 29.84 in Calm     90% 0.00 in 0 W/m2
00:12 58.9 °F 56.3 °F 29.84 in Calm     91% 0.00 in 0 W/m2
00:18 58.9 °F 56.3 °F 29.84 in Calm     91% 0.00 in 0 W/m2
00:24 58.9 °F 56.3 °F 29.84 in Calm     91% 0.00 in 0 W/m2
00:30 59.1 °F 56.5 °F 29.84 in Calm     91% 0.00 in 0 W/m2
00:36 59.1 °F 56.5 °F 29.83 in Calm     91% 0.00 in 0 W/m2
00:42 59.3 °F 56.7 °F 29.83 in Calm     91% 0.00 in 0 W/m2
00:48 59.9 °F 57.3 °F 29.83 in South 1.0 mph 1.0 mph 91% 0.00 in 0 W/m2
00:54 60.5 °F 57.9 °F 29.83 in South 1.0 mph 2.0 mph 91% 0.00 in 0 W/m2
01:00 60.7 °F 58.1 °F 29.83 in South 1.0 mph 1.0 mph 91% 0.00 in 0 W/m2
01:06 60.9 °F 57.9 °F 29.83 in South 1.0 mph 1.0 mph 90% 0.00 in 0 W/m2
01:12 61.0 °F 58.0 °F 29.83 in South 1.0 mph 4.0 mph 90% 0.00 in 0 W/m2
01:18 61.1 °F 57.8 °F 29.82 in South 1.0 mph 4.0 mph 89% 0.00 in 0 W/m2
01:24 61.3 °F 58.0 °F 29.82 in South 1.0 mph 2.0 mph 89% 0.00 in 0 W/m2
01:30 61.5 °F 58.2 °F 29.81 in South 1.0 mph 1.0 mph 89% 0.00 in 0 W/m2
01:36 61.6 °F 58.0 °F 29.81 in SSW 1.0 mph 2.0 mph 88% 0.00 in 0 W/m2
01:42 62.0 °F 58.4 °F 29.81 in South 1.0 mph 1.0 mph 88% 0.00 in 0 W/m2
01:48 62.4 °F 58.5 °F 29.81 in South 1.0 mph 2.0 mph 87% 0.00 in 0 W/m2
01:54 62.4 °F 58.2 °F 29.81 in South 1.0 mph 1.0 mph 86% 0.00 in 0 W/m2
02:00 62.3 °F 58.1 °F 29.81 in South 1.0 mph 1.0 mph 86% 0.00 in 0 W/m2
02:06 62.5 °F 58.3 °F 29.81 in South 1.0 mph 3.0 mph 86% 0.00 in 0 W/m2
02:12 62.9 °F 58.3 °F 29.81 in South 2.0 mph 2.0 mph 85% 0.00 in 0 W/m2
02:18 63.1 °F 58.2 °F 29.81 in SSW 2.0 mph 3.0 mph 84% 0.00 in 0 W/m2
02:24 63.2 °F 58.3 °F 29.81 in SSW 1.0 mph 3.0 mph 84% 0.00 in 0 W/m2
02:30 63.3 °F 58.4 °F 29.80 in SSW 1.0 mph 1.0 mph 84% 0.00 in 0 W/m2
02:36 63.5 °F 58.2 °F 29.80 in SSW 1.0 mph 4.0 mph 83% 0.00 in 0 W/m2
02:42 63.6 °F 58.3 °F 29.80 in West 2.0 mph 3.0 mph 83% 0.00 in 0 W/m2
02:48 63.7 °F 58.4 °F 29.80 in WSW 1.0 mph 4.0 mph 83% 0.00 in 0 W/m2
02:54 63.7 °F 58.4 °F 29.80 in WSW 1.0 mph 2.0 mph 83% 0.00 in 0 W/m2
03:00 63.8 °F 58.2 °F 29.80 in WSW 1.0 mph 2.0 mph 82% 0.00 in 0 W/m2
03:06 63.9 °F 58.3 °F 29.80 in WSW 2.0 mph 3.0 mph 82% 0.00 in 0 W/m2
03:12 63.9 °F 58.3 °F 29.80 in WSW 1.0 mph 2.0 mph 82% 0.00 in 0 W/m2
03:18 64.0 °F 58.4 °F 29.80 in SW 2.0 mph 2.0 mph 82% 0.00 in 0 W/m2
03:24 64.1 °F 58.5 °F 29.80 in South 3.0 mph 3.0 mph 82% 0.00 in 0 W/m2
03:30 64.1 °F 58.5 °F 29.80 in SW 3.0 mph 3.0 mph 82% 0.00 in 0 W/m2
03:36 64.1 °F 58.5 °F 29.80 in SW 3.0 mph 4.0 mph 82% 0.00 in 0 W/m2
03:42 64.1 °F 58.5 °F 29.80 in SSW 3.0 mph 3.0 mph 82% 0.00 in 0 W/m2
03:48 64.2 °F 58.6 °F 29.80 in SW 2.0 mph 5.0 mph 82% 0.00 in 0 W/m2
03:54 64.2 °F 58.6 °F 29.80 in South 2.0 mph 4.0 mph 82% 0.00 in 0 W/m2
04:00 64.3 °F 58.7 °F 29.80 in SSW 3.0 mph 3.0 mph 82% 0.00 in 0 W/m2
04:06 64.3 °F 58.7 °F 29.80 in SSW 3.0 mph 4.0 mph 82% 0.00 in 0 W/m2
04:12 64.4 °F 58.8 °F 29.79 in SW 3.0 mph 3.0 mph 82% 0.00 in 0 W/m2
04:18 64.3 °F 58.7 °F 29.79 in WSW 2.0 mph 3.0 mph 82% 0.00 in 0 W/m2
04:26 64.4 °F 58.8 °F 29.79 in SSW 2.0 mph 4.0 mph 82% 0.00 in 0 W/m2
04:32 64.5 °F 58.9 °F 29.79 in South 3.0 mph 3.0 mph 82% 0.00 in 0 W/m2
04:38 64.5 °F 58.9 °F 29.79 in SW 3.0 mph 4.0 mph 82% 0.00 in 0 W/m2
04:44 64.6 °F 59.0 °F 29.79 in SW 2.0 mph 6.0 mph 82% 0.00 in 0 W/m2
04:50 64.7 °F 59.1 °F 29.79 in SSW 2.0 mph 7.0 mph 82% 0.00 in 0 W/m2
04:56 64.8 °F 59.2 °F 29.79 in WSW 3.0 mph 7.0 mph 82% 0.00 in 0 W/m2
05:04 64.9 °F 59.3 °F 29.79 in SW 2.0 mph 4.0 mph 82% 0.00 in 0 W/m2
05:10 65.1 °F 59.5 °F 29.79 in SW 3.0 mph 3.0 mph 82% 0.00 in 0 W/m2
05:16 65.1 °F 59.5 °F 29.79 in SW 2.0 mph 3.0 mph 82% 0.00 in 0 W/m2
05:22 65.2 °F 59.6 °F 29.78 in SSW 3.0 mph 5.0 mph 82% 0.00 in 0 W/m2
05:28 65.2 °F 59.6 °F 29.79 in SW 3.0 mph 5.0 mph 82% 0.00 in 0 W/m2
05:34 65.2 °F 59.6 °F 29.79 in WSW 3.0 mph 4.0 mph 82% 0.00 in 0 W/m2
05:40 65.2 °F 59.6 °F 29.79 in SSW 3.0 mph 5.0 mph 82% 0.00 in 0 W/m2
05:46 65.2 °F 59.6 °F 29.79 in WSW 2.0 mph 5.0 mph 82% 0.00 in 0 W/m2
05:52 65.2 °F 59.6 °F 29.79 in SSW 2.0 mph 2.0 mph 82% 0.00 in 0 W/m2
05:58 65.2 °F 59.6 °F 29.79 in WSW 2.0 mph 2.0 mph 82% 0.00 in 5 W/m2
06:04 65.2 °F 59.6 °F 29.80 in SSW 1.0 mph 3.0 mph 82% 0.00 in 5 W/m2
Country Meadow, Clay, NY, USA
Compliments of Weather Underground - 2 mb